Terminal Aerodrome Forecast
Issued by NWS

Home | Current Version | Previous Version | Text Only | Print | Product List | Glossary On
Versions: 1 2 3 4 5 6 7 8 9 10 11 12 13 14 15 16 17 18 19 20 21 22 23 24
000
FTUS44 KLZK 021100
TAFBPK
TAF
KBPK 021120Z 0212/0312 33005KT 6SM BR OVC015
      TEMPO 0212/0214 2SM BR OVC007
     FM021400 11009KT P6SM SCT007 OVC020
     FM022100 12005KT P6SM OVC012
     FM030100 14005KT 4SM BR OVC007=

USA.gov is the U.S. government's official web portal to all federal, state and local government web resources and services.